createdAt,value
2023-03-08T00:00:24.844Z,3.23
2023-03-08T00:02:53.967Z,3.37
2023-03-08T00:05:20.993Z,3.00
2023-03-08T00:07:48.019Z,3.90
2023-03-08T00:10:15.251Z,3.30
2023-03-08T00:12:42.280Z,3.23
2023-03-08T00:15:09.563Z,2.50
2023-03-08T00:17:39.367Z,4.00
2023-03-08T00:20:08.835Z,3.83
2023-03-08T00:22:40.407Z,3.33
2023-03-08T00:25:11.211Z,2.87
2023-03-08T00:27:38.481Z,3.73
2023-03-08T00:30:06.299Z,3.63
2023-03-08T00:32:33.794Z,2.83
2023-03-08T00:35:00.894Z,4.10
2023-03-08T00:37:27.993Z,4.30
2023-03-08T00:39:55.177Z,2.60
2023-03-08T00:42:22.817Z,3.80
2023-03-08T00:44:50.185Z,3.60
2023-03-08T00:47:17.693Z,1.77
2023-03-08T00:49:45.146Z,3.50
2023-03-08T00:52:12.229Z,3.20
2023-03-08T00:54:39.421Z,4.00
2023-03-08T00:57:06.541Z,2.83
2023-03-08T00:59:33.613Z,3.07
2023-03-08T01:02:01.444Z,4.00
2023-03-08T01:04:28.637Z,2.70
2023-03-08T01:06:55.656Z,2.30
2023-03-08T01:09:22.713Z,3.57
2023-03-08T01:11:49.729Z,3.93
2023-03-08T01:14:16.784Z,2.43
2023-03-08T01:16:43.858Z,3.80
2023-03-08T01:19:11.823Z,3.37
2023-03-08T01:21:38.976Z,3.03
2023-03-08T01:24:06.581Z,2.63
2023-03-08T01:26:33.888Z,2.43
2023-03-08T01:29:01.281Z,3.90
2023-03-08T01:31:30.122Z,3.70
2023-03-08T01:33:59.211Z,2.47
2023-03-08T01:36:27.949Z,4.10
2023-03-08T01:38:55.589Z,2.60
2023-03-08T01:41:26.013Z,4.20
2023-03-08T01:43:54.402Z,3.10
2023-03-08T01:46:27.959Z,2.93
2023-03-08T01:49:19.841Z,2.10
2023-03-08T01:52:03.020Z,3.90
2023-03-08T01:54:39.832Z,2.70
2023-03-08T01:57:15.508Z,1.90
2023-03-08T01:59:44.123Z,3.37
2023-03-08T02:02:11.339Z,3.10
2023-03-08T02:04:40.758Z,2.47
2023-03-08T02:07:11.326Z,3.40
2023-03-08T02:09:39.286Z,3.97
2023-03-08T02:12:11.638Z,3.87
2023-03-08T02:14:41.375Z,4.30
2023-03-08T02:17:09.214Z,3.63
2023-03-08T02:20:18.192Z,3.70
2023-03-08T02:22:47.175Z,2.60
2023-03-08T02:25:20.257Z,3.80
2023-03-08T02:27:48.512Z,2.27
2023-03-08T02:30:22.468Z,4.17
2023-03-08T02:32:49.592Z,3.60
2023-03-08T02:35:16.901Z,3.67
2023-03-08T02:37:44.690Z,3.90
2023-03-08T02:40:12.629Z,2.33
2023-03-08T02:42:39.929Z,4.03
2023-03-08T02:45:07.889Z,3.30
2023-03-08T02:47:35.016Z,3.77
2023-03-08T02:50:02.217Z,2.20
2023-03-08T02:52:29.225Z,3.80
2023-03-08T02:54:56.605Z,4.20
2023-03-08T02:57:25.619Z,3.67
2023-03-08T02:59:54.641Z,1.70
2023-03-08T03:02:22.590Z,2.93
2023-03-08T03:04:50.541Z,3.53
2023-03-08T03:07:17.948Z,3.40
2023-03-08T03:09:45.816Z,3.27
2023-03-08T03:12:13.906Z,2.93
2023-03-08T03:14:42.682Z,3.30
2023-03-08T03:17:10.350Z,3.57
2023-03-08T03:19:38.823Z,3.60
2023-03-08T03:22:05.969Z,3.10
2023-03-08T03:24:33.121Z,3.57
2023-03-08T03:27:00.753Z,3.17
2023-03-08T03:29:32.072Z,3.57
2023-03-08T03:32:08.996Z,2.90
2023-03-08T03:34:36.426Z,3.17
2023-03-08T03:37:04.129Z,3.77
2023-03-08T03:39:34.876Z,3.80
2023-03-08T03:42:03.063Z,3.13
2023-03-08T03:44:31.149Z,3.47
2023-03-08T03:46:58.901Z,3.73
2023-03-08T03:49:29.026Z,3.53
2023-03-08T03:51:56.216Z,3.33
2023-03-08T03:54:34.151Z,2.80
2023-03-08T03:57:01.313Z,2.90
2023-03-08T03:59:34.109Z,2.50
2023-03-08T04:02:02.185Z,3.57
2023-03-08T04:04:41.616Z,2.40
2023-03-08T04:07:13.172Z,2.63
2023-03-08T04:09:47.665Z,3.23
2023-03-08T04:12:17.073Z,3.30
2023-03-08T04:14:45.053Z,3.40
2023-03-08T04:17:13.911Z,3.90
2023-03-08T04:19:50.379Z,4.27
2023-03-08T04:22:18.885Z,3.63
2023-03-08T04:25:03.848Z,3.17
2023-03-08T04:27:42.745Z,4.00
2023-03-08T04:30:11.431Z,3.20
2023-03-08T04:32:38.657Z,2.80
2023-03-08T04:35:06.507Z,4.10
2023-03-08T04:37:37.189Z,3.63
2023-03-08T04:40:10.324Z,4.00
2023-03-08T04:42:45.317Z,1.43
2023-03-08T04:45:15.662Z,3.10
2023-03-08T04:47:42.832Z,4.00
2023-03-08T04:50:12.236Z,4.00
2023-03-08T04:52:39.425Z,3.50
2023-03-08T04:55:07.850Z,3.90
2023-03-08T05:05:56.829Z,2.40
2023-03-08T05:08:24.804Z,4.07
2023-03-08T05:11:01.273Z,3.93
2023-03-08T05:13:36.052Z,3.97
2023-03-08T05:16:05.040Z,4.33
2023-03-08T05:18:32.407Z,3.47
2023-03-08T05:21:02.693Z,3.77
2023-03-08T05:23:31.564Z,4.30
2023-03-08T05:26:02.964Z,4.30
2023-03-08T05:28:33.140Z,3.50
2023-03-08T05:31:05.841Z,4.00
2023-03-08T05:33:36.745Z,3.93
2023-03-08T05:36:05.663Z,4.10
2023-03-08T05:38:34.038Z,4.00
2023-03-08T05:41:07.324Z,4.43
2023-03-08T05:43:35.304Z,4.30
2023-03-08T05:46:15.598Z,5.00
2023-03-08T05:48:44.437Z,4.37
2023-03-08T05:51:16.098Z,4.43
2023-03-08T05:53:44.650Z,4.43
2023-03-08T05:56:16.818Z,4.50
2023-03-08T05:58:51.566Z,4.30
2023-03-08T06:01:24.730Z,4.10
2023-03-08T06:03:57.524Z,4.30
2023-03-08T06:06:29.572Z,4.63
2023-03-08T06:09:00.156Z,4.23
2023-03-08T06:11:28.052Z,4.33
2023-03-08T06:13:57.988Z,4.93
2023-03-08T06:16:30.204Z,4.60
2023-03-08T06:18:57.750Z,4.50
2023-03-08T06:21:26.282Z,4.93
2023-03-08T06:23:59.837Z,4.93
2023-03-08T06:26:27.345Z,4.73
2023-03-08T06:28:55.304Z,5.50
2023-03-08T06:31:27.158Z,5.30
2023-03-08T06:33:54.785Z,4.73
2023-03-08T06:36:25.244Z,4.80
2023-03-08T06:38:52.566Z,4.50
2023-03-08T06:41:20.885Z,4.47
2023-03-08T06:43:53.338Z,4.80
2023-03-08T06:46:21.766Z,4.40
2023-03-08T06:48:49.417Z,4.57
2023-03-08T06:51:18.418Z,4.17
2023-03-08T06:53:47.174Z,4.27
2023-03-08T06:56:18.881Z,4.33
2023-03-08T06:58:46.008Z,4.20
2023-03-08T07:01:13.918Z,4.50
2023-03-08T07:03:41.557Z,4.20
2023-03-08T07:06:10.013Z,3.87
2023-03-08T07:08:39.785Z,3.90
2023-03-08T07:11:08.934Z,3.77
2023-03-08T07:13:36.807Z,3.83
2023-03-08T07:16:11.942Z,4.10
2023-03-08T07:18:40.145Z,4.10
2023-03-08T07:21:08.566Z,4.50
2023-03-08T07:23:35.737Z,4.10
2023-03-08T07:26:09.664Z,3.73
2023-03-08T07:28:37.145Z,3.93
2023-03-08T07:31:04.560Z,3.90
2023-03-08T07:33:31.676Z,3.97
2023-03-08T07:36:02.504Z,4.10
2023-03-08T07:38:30.207Z,4.10
2023-03-08T07:40:57.547Z,4.10
2023-03-08T07:43:24.896Z,4.10
2023-03-08T07:46:01.736Z,4.40
2023-03-08T07:48:29.743Z,3.87
2023-03-08T07:51:03.188Z,4.00
2023-03-08T07:53:30.752Z,3.77
2023-03-08T07:55:59.415Z,4.33
2023-03-08T07:58:27.986Z,4.50
2023-03-08T08:00:55.149Z,4.60
2023-03-08T08:03:22.521Z,4.53
2023-03-08T08:05:49.614Z,4.30
2023-03-08T08:08:16.998Z,5.07
2023-03-08T08:10:44.195Z,4.30
2023-03-08T08:13:11.368Z,4.60
2023-03-08T08:15:38.496Z,4.47
2023-03-08T08:18:05.749Z,4.30
2023-03-08T08:20:32.899Z,4.20
2023-03-08T08:22:59.978Z,5.10
2023-03-08T08:25:27.478Z,4.23
2023-03-08T08:27:54.612Z,4.50
2023-03-08T08:30:21.808Z,4.60
2023-03-08T08:32:49.032Z,4.20
2023-03-08T08:35:16.773Z,4.17
2023-03-08T08:37:43.847Z,4.40
2023-03-08T08:40:12.282Z,4.33
2023-03-08T08:42:39.478Z,4.20
2023-03-08T08:45:07.093Z,4.20
2023-03-08T08:47:34.180Z,4.30
2023-03-08T08:50:01.287Z,4.50
2023-03-08T08:52:28.464Z,4.20
2023-03-08T08:54:56.813Z,4.40
2023-03-08T08:57:24.009Z,4.70
2023-03-08T08:59:51.099Z,4.30
2023-03-08T09:02:18.233Z,4.57
2023-03-08T09:04:45.442Z,4.93
2023-03-08T09:07:12.662Z,4.10
2023-03-08T09:09:39.678Z,4.60
2023-03-08T09:12:07.165Z,4.70
2023-03-08T09:14:35.184Z,4.70
2023-03-08T09:17:02.339Z,4.40
2023-03-08T09:19:29.711Z,4.77
2023-03-08T09:21:56.809Z,5.00
2023-03-08T09:24:24.331Z,4.80
2023-03-08T09:26:51.380Z,4.73
2023-03-08T09:29:18.476Z,5.33
2023-03-08T09:31:45.799Z,5.07
2023-03-08T09:34:14.930Z,5.13
2023-03-08T09:36:42.643Z,5.77
2023-03-08T09:39:12.066Z,5.37
2023-03-08T09:41:45.236Z,5.30
2023-03-08T09:44:46.057Z,5.03
2023-03-08T09:47:54.178Z,5.00
2023-03-08T09:50:31.088Z,6.53
2023-03-08T09:53:17.779Z,6.40
2023-03-08T09:56:31.242Z,5.73
2023-03-08T09:59:35.160Z,5.70
2023-03-08T10:02:04.840Z,5.77
2023-03-08T10:04:54.762Z,6.23
2023-03-08T10:07:58.909Z,5.90
2023-03-08T10:10:33.702Z,6.03
2023-03-08T10:13:33.325Z,6.80
2023-03-08T10:16:22.693Z,6.37
2023-03-08T10:19:01.373Z,6.47
2023-03-08T10:21:32.125Z,6.77
2023-03-08T10:24:14.321Z,6.47
2023-03-08T10:26:43.338Z,7.60
2023-03-08T10:29:13.129Z,7.33
2023-03-08T10:31:43.712Z,6.80
2023-03-08T10:34:19.350Z,6.63
2023-03-08T10:37:10.048Z,6.87
2023-03-08T10:39:39.007Z,6.80
2023-03-08T10:42:16.736Z,7.00
2023-03-08T10:45:04.929Z,7.17
2023-03-08T10:47:36.572Z,7.17
2023-03-08T10:50:13.221Z,6.80
2023-03-08T10:52:41.271Z,6.77
2023-03-08T10:55:18.537Z,6.10
2023-03-08T10:58:01.031Z,6.20
2023-03-08T11:00:44.378Z,6.43
2023-03-08T11:03:15.413Z,6.33
2023-03-08T11:05:58.753Z,6.23
2023-03-08T11:08:33.115Z,6.53
2023-03-08T11:11:20.527Z,7.33
2023-03-08T11:13:49.671Z,6.13
2023-03-08T11:16:29.096Z,5.87
2023-03-08T11:18:59.365Z,6.90
2023-03-08T11:22:05.619Z,6.20
2023-03-08T11:25:13.233Z,6.47
2023-03-08T11:27:43.093Z,6.17
2023-03-08T11:30:16.083Z,5.97
2023-03-08T11:33:10.632Z,6.27
2023-03-08T11:35:37.937Z,5.70
2023-03-08T11:38:26.947Z,6.37
2023-03-08T11:41:25.796Z,5.70
2023-03-08T11:44:17.332Z,5.63
2023-03-08T11:47:08.894Z,5.50
2023-03-08T11:49:54.848Z,5.60
2023-03-08T11:52:50.071Z,5.60
2023-03-08T11:55:38.960Z,5.73
2023-03-08T11:58:31.275Z,4.93
2023-03-08T12:01:09.341Z,5.37
2023-03-08T12:03:41.975Z,4.43
2023-03-08T12:06:30.852Z,4.60
2023-03-08T12:09:16.073Z,4.73
2023-03-08T12:11:47.962Z,4.50
2023-03-08T12:14:21.165Z,4.63
2023-03-08T12:17:07.212Z,5.10
2023-03-08T12:19:37.352Z,4.50
2023-03-08T12:22:23.516Z,3.67
2023-03-08T12:25:09.479Z,2.90
2023-03-08T12:27:53.164Z,4.93
2023-03-08T12:30:35.564Z,4.70
2023-03-08T12:33:05.426Z,4.37
2023-03-08T12:35:38.535Z,4.60
2023-03-08T12:38:27.220Z,4.63
2023-03-08T12:40:55.740Z,4.27
2023-03-08T12:43:22.795Z,3.90
2023-03-08T12:46:04.993Z,4.10
2023-03-08T12:48:32.155Z,4.73
2023-03-08T12:51:14.749Z,4.30
2023-03-08T12:53:54.996Z,4.20
2023-03-08T12:56:31.277Z,4.30
2023-03-08T12:59:03.197Z,4.07
2023-03-08T13:01:30.366Z,4.60
2023-03-08T13:03:57.932Z,4.33
2023-03-08T13:06:27.678Z,3.23
2023-03-08T13:09:18.237Z,3.77
2023-03-08T13:11:51.694Z,3.77
2023-03-08T13:14:26.551Z,3.80
2023-03-08T13:16:54.064Z,3.37
2023-03-08T13:19:26.317Z,4.33
2023-03-08T13:22:05.695Z,3.53
2023-03-08T13:24:37.649Z,3.70
2023-03-08T13:27:10.711Z,4.67
2023-03-08T13:29:38.228Z,3.80
2023-03-08T13:32:14.297Z,3.90
2023-03-08T13:34:42.015Z,4.40
2023-03-08T13:37:29.406Z,4.10
2023-03-08T13:39:59.141Z,4.40
2023-03-08T13:42:28.804Z,4.50
2023-03-08T13:45:09.646Z,4.63
2023-03-08T13:47:39.481Z,4.33
2023-03-08T13:50:07.118Z,4.63
2023-03-08T13:52:38.281Z,4.93
2023-03-08T13:55:08.949Z,4.70
2023-03-08T13:57:38.452Z,4.37
2023-03-08T14:00:29.444Z,4.97
2023-03-08T14:02:57.877Z,4.30
2023-03-08T14:05:28.600Z,4.83
2023-03-08T14:08:18.594Z,5.33
2023-03-08T14:11:19.364Z,5.33
2023-03-08T14:13:50.671Z,5.07
2023-03-08T14:16:27.203Z,5.40
2023-03-08T14:18:55.024Z,5.50
2023-03-08T14:21:27.986Z,5.17
2023-03-08T14:24:00.382Z,5.30
2023-03-08T14:26:40.857Z,5.33
2023-03-08T14:29:21.571Z,5.63
2023-03-08T14:31:59.466Z,5.50
2023-03-08T14:34:28.742Z,5.63
2023-03-08T14:36:59.640Z,5.47
2023-03-08T14:39:29.376Z,5.80
2023-03-08T14:41:57.046Z,5.67
2023-03-08T14:44:29.633Z,5.63
2023-03-08T14:46:59.474Z,6.37
2023-03-08T14:49:29.652Z,6.33
2023-03-08T14:51:57.143Z,6.20
2023-03-08T14:54:37.137Z,6.50
2023-03-08T14:57:24.848Z,5.97
2023-03-08T14:59:53.101Z,7.13
2023-03-08T15:02:20.257Z,6.37
2023-03-08T15:04:47.512Z,6.20
2023-03-08T15:07:24.683Z,6.07
2023-03-08T15:09:52.599Z,6.90
2023-03-08T15:12:20.296Z,6.93
2023-03-08T15:14:47.590Z,7.03
2023-03-08T15:17:14.795Z,7.03
2023-03-08T15:19:41.997Z,6.00
2023-03-08T15:22:13.431Z,6.13
2023-03-08T15:24:40.905Z,7.70
2023-03-08T15:27:12.806Z,7.53
2023-03-08T15:29:40.104Z,7.20
2023-03-08T15:32:08.192Z,6.90
2023-03-08T15:34:35.675Z,6.80
2023-03-08T15:37:02.805Z,6.93
2023-03-08T15:39:30.074Z,6.80
2023-03-08T15:41:57.358Z,5.90
2023-03-08T15:44:24.510Z,6.83
2023-03-08T15:46:52.995Z,6.30
2023-03-08T15:49:20.190Z,7.37
2023-03-08T15:51:47.281Z,6.87
2023-03-08T15:54:14.364Z,5.90
2023-03-08T15:56:41.456Z,7.10
2023-03-08T15:59:08.546Z,7.03
2023-03-08T16:01:35.766Z,7.10
2023-03-08T16:04:02.901Z,7.40
2023-03-08T16:06:30.077Z,6.67
2023-03-08T16:08:57.800Z,5.10
2023-03-08T16:11:24.922Z,6.67
2023-03-08T16:13:53.173Z,6.47
2023-03-08T16:16:21.286Z,7.03
2023-03-08T16:18:48.949Z,6.70
2023-03-08T16:21:16.415Z,5.67
2023-03-08T16:23:43.664Z,8.83
2023-03-08T16:26:17.531Z,7.33
2023-03-08T16:28:47.120Z,7.27
2023-03-08T16:31:15.499Z,6.80
2023-03-08T16:33:42.824Z,7.77
2023-03-08T16:36:11.004Z,7.30
2023-03-08T16:38:38.262Z,6.60
2023-03-08T16:41:12.613Z,8.07
2023-03-08T16:43:48.725Z,7.73
2023-03-08T16:46:18.153Z,6.30
2023-03-08T16:48:45.433Z,6.57
2023-03-08T16:51:15.411Z,6.87
2023-03-08T16:53:42.959Z,5.67
2023-03-08T16:56:17.004Z,6.67
2023-03-08T16:58:44.065Z,5.60
2023-03-08T17:01:13.187Z,4.87
2023-03-08T17:03:40.691Z,4.80
2023-03-08T17:06:09.602Z,4.40
2023-03-08T17:08:37.025Z,4.30
2023-03-08T17:11:06.215Z,4.37
2023-03-08T17:13:33.735Z,4.00
2023-03-08T17:16:00.923Z,4.23
2023-03-08T17:18:28.060Z,4.37
2023-03-08T17:20:55.147Z,4.67
2023-03-08T17:23:22.249Z,4.03
2023-03-08T17:25:49.344Z,4.73
2023-03-08T17:28:16.449Z,5.07
2023-03-08T17:30:43.743Z,5.07
2023-03-08T17:33:12.802Z,4.93
2023-03-08T17:35:41.508Z,5.33
2023-03-08T17:38:08.776Z,5.03
2023-03-08T17:40:38.159Z,4.67
2023-03-08T17:43:05.268Z,5.10
2023-03-08T17:45:32.377Z,5.43
2023-03-08T17:48:02.758Z,4.40
2023-03-08T17:50:31.315Z,4.93
2023-03-08T17:52:59.170Z,5.00
2023-03-08T17:55:27.408Z,5.70
2023-03-08T17:57:54.912Z,4.87
2023-03-08T18:00:22.455Z,5.23
2023-03-08T18:02:49.727Z,4.60
2023-03-08T18:05:16.979Z,4.60
2023-03-08T18:07:45.916Z,5.03
2023-03-08T18:10:13.107Z,4.77
2023-03-08T18:12:40.252Z,5.13
2023-03-08T18:15:07.998Z,4.50
2023-03-08T18:17:35.144Z,4.07
2023-03-08T18:20:05.407Z,4.70
2023-03-08T18:22:32.621Z,4.33
2023-03-08T18:24:59.696Z,5.03
2023-03-08T18:27:26.853Z,4.20
2023-03-08T18:29:53.924Z,3.83
2023-03-08T18:32:21.123Z,4.33
2023-03-08T18:34:48.287Z,4.70
2023-03-08T18:37:15.843Z,4.57
2023-03-08T18:39:43.043Z,5.10
2023-03-08T18:42:10.459Z,4.90
2023-03-08T18:44:38.734Z,4.90
2023-03-08T18:47:05.881Z,5.07
2023-03-08T18:49:32.999Z,4.07
2023-03-08T18:52:00.220Z,4.80
2023-03-08T18:54:27.332Z,4.40
2023-03-08T18:56:56.184Z,3.80
2023-03-08T18:59:24.174Z,4.13
2023-03-08T19:01:51.450Z,4.33
2023-03-08T19:04:18.652Z,4.13
2023-03-08T19:06:45.965Z,4.10
2023-03-08T19:09:17.335Z,4.00
2023-03-08T19:11:45.878Z,4.17
2023-03-08T19:14:13.375Z,3.10
2023-03-08T19:16:40.774Z,3.50
2023-03-08T19:19:15.046Z,3.60
2023-03-08T19:21:44.556Z,2.53
2023-03-08T19:24:16.864Z,3.10
2023-03-08T19:26:47.605Z,3.13
2023-03-08T19:29:23.850Z,3.27
2023-03-08T19:31:52.397Z,3.27
2023-03-08T19:34:31.751Z,2.60
2023-03-08T19:37:00.248Z,2.60
2023-03-08T19:39:30.610Z,2.80
2023-03-08T19:42:03.779Z,2.83
2023-03-08T19:44:31.707Z,2.80
2023-03-08T19:46:59.798Z,2.60
2023-03-08T19:49:29.776Z,2.27
2023-03-08T19:51:58.926Z,2.00
2023-03-08T19:54:27.477Z,2.20
2023-03-08T19:56:55.312Z,2.03
2023-03-08T19:59:23.719Z,2.10
2023-03-08T20:01:54.160Z,1.97
2023-03-08T20:04:22.039Z,1.70
2023-03-08T20:06:50.452Z,2.30
2023-03-08T20:09:21.824Z,2.20
2023-03-08T20:11:53.336Z,1.20
2023-03-08T20:14:21.874Z,1.60
2023-03-08T20:16:49.916Z,2.60
2023-03-08T20:19:17.886Z,2.97
2023-03-08T20:21:45.223Z,1.40
2023-03-08T20:24:13.500Z,1.30
2023-03-08T20:26:42.165Z,1.60
2023-03-08T20:29:09.797Z,1.20
2023-03-08T20:31:37.011Z,1.00
2023-03-08T20:34:04.118Z,1.30
2023-03-08T20:36:31.213Z,1.27
2023-03-08T20:38:58.948Z,1.17
2023-03-08T20:41:26.423Z,1.30
2023-03-08T20:43:57.499Z,0.90
2023-03-08T20:46:31.154Z,1.30
2023-03-08T20:48:58.599Z,1.00
2023-03-08T20:51:25.969Z,1.00
2023-03-08T20:53:54.694Z,1.10
2023-03-08T20:56:23.602Z,1.00
2023-03-08T20:58:54.527Z,1.20
2023-03-08T21:01:25.929Z,1.10
2023-03-08T21:03:53.095Z,0.80
2023-03-08T21:06:23.733Z,0.80
2023-03-08T21:08:51.129Z,0.80
2023-03-08T21:11:18.926Z,1.47
2023-03-08T21:13:48.398Z,1.00
2023-03-08T21:16:17.158Z,1.10
2023-03-08T21:18:46.065Z,1.30
2023-03-08T21:21:34.509Z,1.40
2023-03-08T21:24:07.488Z,1.60
2023-03-08T21:26:34.915Z,1.70
2023-03-08T21:29:06.412Z,1.20
2023-03-08T21:31:36.085Z,1.03
2023-03-08T21:34:05.073Z,0.83
2023-03-08T21:36:32.988Z,1.00
2023-03-08T21:39:00.686Z,0.93
2023-03-08T21:41:30.796Z,0.80
2023-03-08T21:43:58.319Z,0.80
2023-03-08T21:46:26.087Z,0.80
2023-03-08T21:48:55.227Z,0.70
2023-03-08T21:51:22.904Z,0.80
2023-03-08T21:53:50.594Z,0.90
2023-03-08T21:56:18.722Z,0.90
2023-03-08T21:58:46.353Z,0.90
2023-03-08T22:01:28.124Z,0.80
2023-03-08T22:03:56.420Z,0.90
2023-03-08T22:06:24.550Z,0.90
2023-03-08T22:08:52.270Z,0.80
2023-03-08T22:11:20.446Z,0.90
2023-03-08T22:13:57.141Z,0.80
2023-03-08T22:16:24.951Z,0.80
2023-03-08T22:18:54.186Z,0.70
2023-03-08T22:21:21.678Z,1.00
2023-03-08T22:23:53.400Z,0.90
2023-03-08T22:26:21.706Z,6.13
2023-03-08T22:28:49.118Z,17.70
2023-03-08T22:31:19.123Z,25.43
2023-03-08T22:33:46.970Z,18.00
2023-03-08T22:36:16.156Z,4.07
2023-03-08T22:38:43.585Z,1.13
2023-03-08T22:41:12.792Z,1.20
2023-03-08T22:43:41.469Z,0.80
2023-03-08T22:46:23.895Z,1.00
2023-03-08T22:48:52.066Z,1.07
2023-03-08T22:51:21.417Z,1.00
2023-03-08T22:53:48.580Z,0.80
2023-03-08T22:56:23.415Z,1.00
2023-03-08T22:58:51.191Z,1.20
2023-03-08T23:01:21.154Z,0.90
2023-03-08T23:03:49.733Z,0.93
2023-03-08T23:06:18.395Z,1.10
2023-03-08T23:08:46.244Z,0.93
2023-03-08T23:11:13.937Z,0.90
2023-03-08T23:13:41.723Z,1.00
2023-03-08T23:16:11.657Z,0.80
2023-03-08T23:18:38.936Z,1.10
2023-03-08T23:21:08.342Z,0.97
2023-03-08T23:23:36.170Z,0.90
2023-03-08T23:26:08.160Z,1.10
2023-03-08T23:28:36.468Z,0.90
2023-03-08T23:31:12.617Z,0.90
2023-03-08T23:33:40.433Z,0.90
2023-03-08T23:36:09.315Z,0.97
2023-03-08T23:38:36.679Z,0.70
2023-03-08T23:41:06.072Z,1.10
2023-03-08T23:43:35.012Z,1.00
2023-03-08T23:46:14.305Z,1.00
2023-03-08T23:48:41.703Z,0.90
2023-03-08T23:51:11.313Z,0.90
2023-03-08T23:53:38.583Z,0.90
2023-03-08T23:56:07.035Z,1.00
2023-03-08T23:58:34.283Z,1.00
